sensor_id;sensor_type;location;lat;lon;timestamp;P1;durP1;ratioP1;P2;durP2;ratioP2
80910;SDS011;70359;51.420;7.032;2024-01-15T00:00:02;9.6;;;7.8;;
80910;SDS011;70359;51.420;7.032;2024-01-15T00:02:27;9.6;;;7.8;;
80910;SDS011;70359;51.420;7.032;2024-01-15T00:04:52;11.9;;;8.7;;
80910;SDS011;70359;51.420;7.032;2024-01-15T00:07:21;11.9;;;8.7;;
80910;SDS011;70359;51.420;7.032;2024-01-15T00:09:42;13.3;;;9.1;;
80910;SDS011;70359;51.420;7.032;2024-01-15T00:12:11;13.3;;;9.1;;
80910;SDS011;70359;51.420;7.032;2024-01-15T00:14:36;11.2;;;8.8;;
80910;SDS011;70359;51.420;7.032;2024-01-15T00:16:57;11.2;;;8.8;;
80910;SDS011;70359;51.420;7.032;2024-01-15T00:19:22;11.8;;;8.8;;
80910;SDS011;70359;51.420;7.032;2024-01-15T00:21:47;11.8;;;8.8;;
80910;SDS011;70359;51.420;7.032;2024-01-15T00:24:12;12.7;;;8.4;;
80910;SDS011;70359;51.420;7.032;2024-01-15T00:26:37;12.7;;;8.4;;
80910;SDS011;70359;51.420;7.032;2024-01-15T00:29:02;14.5;;;9.5;;
80910;SDS011;70359;51.420;7.032;2024-01-15T00:31:27;14.5;;;9.5;;
80910;SDS011;70359;51.420;7.032;2024-01-15T00:33:56;14.5;;;9.5;;
80910;SDS011;70359;51.420;7.032;2024-01-15T00:36:17;9.9;;;8.9;;
80910;SDS011;70359;51.420;7.032;2024-01-15T00:38:46;9.9;;;8.9;;
80910;SDS011;70359;51.420;7.032;2024-01-15T00:41:07;15.1;;;9.3;;
80910;SDS011;70359;51.420;7.032;2024-01-15T00:43:32;15.1;;;9.3;;
80910;SDS011;70359;51.420;7.032;2024-01-15T00:45:57;12.8;;;8.1;;
80910;SDS011;70359;51.420;7.032;2024-01-15T00:48:22;12.8;;;8.1;;
80910;SDS011;70359;51.420;7.032;2024-01-15T00:50:47;15.2;;;9.9;;
80910;SDS011;70359;51.420;7.032;2024-01-15T00:53:12;15.2;;;9.9;;
80910;SDS011;70359;51.420;7.032;2024-01-15T00:55:37;10.2;;;8.4;;
80910;SDS011;70359;51.420;7.032;2024-01-15T00:58:02;10.2;;;8.4;;
80910;SDS011;70359;51.420;7.032;2024-01-15T01:00:27;12.1;;;9;;
80910;SDS011;70359;51.420;7.032;2024-01-15T01:02:52;12.1;;;9;;
80910;SDS011;70359;51.420;7.032;2024-01-15T01:05:21;16;;;9.2;;
80910;SDS011;70359;51.420;7.032;2024-01-15T01:07:42;16;;;9.2;;
80910;SDS011;70359;51.420;7.032;2024-01-15T01:10:07;12.6;;;9.3;;
80910;SDS011;70359;51.420;7.032;2024-01-15T01:12:32;12.6;;;9.3;;
80910;SDS011;70359;51.420;7.032;2024-01-15T01:14:57;11.5;;;8.1;;
80910;SDS011;70359;51.420;7.032;2024-01-15T01:17:22;11.5;;;8.1;;
80910;SDS011;70359;51.420;7.032;2024-01-15T01:19:47;11.5;;;8.7;;
80910;SDS011;70359;51.420;7.032;2024-01-15T01:22:12;11.5;;;8.7;;
80910;SDS011;70359;51.420;7.032;2024-01-15T01:24:41;10.3;;;8.3;;
80910;SDS011;70359;51.420;7.032;2024-01-15T01:27:02;10.3;;;8.3;;
80910;SDS011;70359;51.420;7.032;2024-01-15T01:29:27;11;;;7.7;;
80910;SDS011;70359;51.420;7.032;2024-01-15T01:31:52;11;;;7.7;;
80910;SDS011;70359;51.420;7.032;2024-01-15T01:34:17;9.8;;;7.6;;
80910;SDS011;70359;51.420;7.032;2024-01-15T01:36:42;9.8;;;7.6;;
80910;SDS011;70359;51.420;7.032;2024-01-15T01:39:07;9.8;;;7.4;;
80910;SDS011;70359;51.420;7.032;2024-01-15T01:41:32;9.8;;;7.4;;
80910;SDS011;70359;51.420;7.032;2024-01-15T01:43:57;13.4;;;7.3;;
80910;SDS011;70359;51.420;7.032;2024-01-15T01:46:22;13.4;;;7.3;;
80910;SDS011;70359;51.420;7.032;2024-01-15T01:48:47;13.4;;;7.3;;
80910;SDS011;70359;51.420;7.032;2024-01-15T01:51:13;7.5;;;6.7;;
80910;SDS011;70359;51.420;7.032;2024-01-15T01:53:38;7.5;;;6.7;;
80910;SDS011;70359;51.420;7.032;2024-01-15T01:56:03;12.9;;;8.6;;
80910;SDS011;70359;51.420;7.032;2024-01-15T01:58:27;12.9;;;8.6;;
80910;SDS011;70359;51.420;7.032;2024-01-15T02:00:52;10.9;;;7.8;;
80910;SDS011;70359;51.420;7.032;2024-01-15T02:03:17;10.9;;;7.8;;
80910;SDS011;70359;51.420;7.032;2024-01-15T02:05:43;9.7;;;8.3;;
80910;SDS011;70359;51.420;7.032;2024-01-15T02:08:08;9.7;;;8.3;;
80910;SDS011;70359;51.420;7.032;2024-01-15T02:10:32;10.2;;;8.2;;
80910;SDS011;70359;51.420;7.032;2024-01-15T02:12:57;10.2;;;8.2;;
80910;SDS011;70359;51.420;7.032;2024-01-15T02:15:22;11.1;;;7.5;;
80910;SDS011;70359;51.420;7.032;2024-01-15T02:18:04;11.1;;;7.5;;
80910;SDS011;70359;51.420;7.032;2024-01-15T02:20:12;14.9;;;8;;
80910;SDS011;70359;51.420;7.032;2024-01-15T02:22:41;14.9;;;8;;
80910;SDS011;70359;51.420;7.032;2024-01-15T02:25:06;8.7;;;7;;
80910;SDS011;70359;51.420;7.032;2024-01-15T02:27:27;8.7;;;7;;
80910;SDS011;70359;51.420;7.032;2024-01-15T02:29:56;11.1;;;7.9;;
80910;SDS011;70359;51.420;7.032;2024-01-15T02:32:21;11.1;;;7.9;;
80910;SDS011;70359;51.420;7.032;2024-01-15T02:34:42;11.4;;;7.1;;
80910;SDS011;70359;51.420;7.032;2024-01-15T02:37:11;11.4;;;7.1;;
80910;SDS011;70359;51.420;7.032;2024-01-15T02:39:36;11.3;;;8;;
80910;SDS011;70359;51.420;7.032;2024-01-15T02:41:57;11.3;;;8;;
80910;SDS011;70359;51.420;7.032;2024-01-15T02:44:22;8.7;;;6.3;;
80910;SDS011;70359;51.420;7.032;2024-01-15T02:46:47;8.7;;;6.3;;
80910;SDS011;70359;51.420;7.032;2024-01-15T02:49:12;9.2;;;6.1;;
80910;SDS011;70359;51.420;7.032;2024-01-15T02:51:37;9.2;;;6.1;;
80910;SDS011;70359;51.420;7.032;2024-01-15T02:54:02;5.8;;;5.2;;
80910;SDS011;70359;51.420;7.032;2024-01-15T02:56:27;5.8;;;5.2;;
80910;SDS011;70359;51.420;7.032;2024-01-15T02:58:53;6.2;;;5.3;;
80910;SDS011;70359;51.420;7.032;2024-01-15T03:01:18;6.2;;;5.3;;
80910;SDS011;70359;51.420;7.032;2024-01-15T03:03:47;6.2;;;5.3;;
80910;SDS011;70359;51.420;7.032;2024-01-15T03:06:07;7.6;;;6.1;;
80910;SDS011;70359;51.420;7.032;2024-01-15T03:08:32;7.6;;;6.1;;
80910;SDS011;70359;51.420;7.032;2024-01-15T03:10:57;9;;;5.7;;
80910;SDS011;70359;51.420;7.032;2024-01-15T03:13:26;9;;;5.7;;
80910;SDS011;70359;51.420;7.032;2024-01-15T03:15:47;8.1;;;5.1;;
80910;SDS011;70359;51.420;7.032;2024-01-15T03:18:12;8.1;;;5.1;;
80910;SDS011;70359;51.420;7.032;2024-01-15T03:20:37;7.3;;;5.4;;
80910;SDS011;70359;51.420;7.032;2024-01-15T03:23:02;7.3;;;5.4;;
80910;SDS011;70359;51.420;7.032;2024-01-15T03:25:27;9;;;5.2;;
80910;SDS011;70359;51.420;7.032;2024-01-15T03:27:56;9;;;5.2;;
80910;SDS011;70359;51.420;7.032;2024-01-15T03:30:17;9.1;;;5.8;;
80910;SDS011;70359;51.420;7.032;2024-01-15T03:32:42;9.1;;;5.8;;
80910;SDS011;70359;51.420;7.032;2024-01-15T03:35:08;6.9;;;5.5;;
80910;SDS011;70359;51.420;7.032;2024-01-15T03:37:32;6.9;;;5.5;;
80910;SDS011;70359;51.420;7.032;2024-01-15T03:39:57;6.1;;;5.4;;
80910;SDS011;70359;51.420;7.032;2024-01-15T03:42:26;6.1;;;5.4;;
80910;SDS011;70359;51.420;7.032;2024-01-15T03:44:47;6.7;;;5.5;;
80910;SDS011;70359;51.420;7.032;2024-01-15T03:47:12;6.7;;;5.5;;
80910;SDS011;70359;51.420;7.032;2024-01-15T03:49:37;7.9;;;5.9;;
80910;SDS011;70359;51.420;7.032;2024-01-15T03:52:02;7.9;;;5.9;;
80910;SDS011;70359;51.420;7.032;2024-01-15T03:54:31;5.9;;;5.3;;
80910;SDS011;70359;51.420;7.032;2024-01-15T03:56:52;5.9;;;5.3;;
80910;SDS011;70359;51.420;7.032;2024-01-15T03:59:17;5.9;;;5.3;;
80910;SDS011;70359;51.420;7.032;2024-01-15T04:01:47;5.9;;;5.3;;
80910;SDS011;70359;51.420;7.032;2024-01-15T04:04:07;8;;;6.1;;
80910;SDS011;70359;51.420;7.032;2024-01-15T04:06:32;8;;;6.1;;
80910;SDS011;70359;51.420;7.032;2024-01-15T04:08:58;7.6;;;6.1;;
80910;SDS011;70359;51.420;7.032;2024-01-15T04:11:22;7.6;;;6.1;;
80910;SDS011;70359;51.420;7.032;2024-01-15T04:13:47;7.6;;;6.1;;
80910;SDS011;70359;51.420;7.032;2024-01-15T04:16:12;6.9;;;6.2;;
80910;SDS011;70359;51.420;7.032;2024-01-15T04:18:37;6.9;;;6.2;;
80910;SDS011;70359;51.420;7.032;2024-01-15T04:21:03;7.8;;;5.6;;
80910;SDS011;70359;51.420;7.032;2024-01-15T04:23:27;7.8;;;5.6;;
80910;SDS011;70359;51.420;7.032;2024-01-15T04:25:52;6.1;;;5.3;;
80910;SDS011;70359;51.420;7.032;2024-01-15T04:28:17;6.1;;;5.3;;
80910;SDS011;70359;51.420;7.032;2024-01-15T04:30:46;6.2;;;5.5;;
80910;SDS011;70359;51.420;7.032;2024-01-15T04:33:07;6.2;;;5.5;;
80910;SDS011;70359;51.420;7.032;2024-01-15T04:35:32;6.4;;;5.7;;
80910;SDS011;70359;51.420;7.032;2024-01-15T04:37:57;6.4;;;5.7;;
80910;SDS011;70359;51.420;7.032;2024-01-15T04:40:22;5.9;;;5.4;;
80910;SDS011;70359;51.420;7.032;2024-01-15T04:42:51;5.9;;;5.4;;
80910;SDS011;70359;51.420;7.032;2024-01-15T04:45:13;7.7;;;5;;
80910;SDS011;70359;51.420;7.032;2024-01-15T04:47:37;7.7;;;5;;
80910;SDS011;70359;51.420;7.032;2024-01-15T04:50:03;9.2;;;6;;
80910;SDS011;70359;51.420;7.032;2024-01-15T04:52:27;9.2;;;6;;
80910;SDS011;70359;51.420;7.032;2024-01-15T04:54:52;6.2;;;5.2;;
80910;SDS011;70359;51.420;7.032;2024-01-15T04:57:17;6.2;;;5.2;;
80910;SDS011;70359;51.420;7.032;2024-01-15T04:59:46;5.2;;;4.7;;
80910;SDS011;70359;51.420;7.032;2024-01-15T05:02:07;5.2;;;4.7;;
80910;SDS011;70359;51.420;7.032;2024-01-15T05:04:32;7.6;;;5;;
80910;SDS011;70359;51.420;7.032;2024-01-15T05:06:57;7.6;;;5;;
80910;SDS011;70359;51.420;7.032;2024-01-15T05:09:22;7.7;;;4.7;;
80910;SDS011;70359;51.420;7.032;2024-01-15T05:11:51;7.7;;;4.7;;
80910;SDS011;70359;51.420;7.032;2024-01-15T05:14:12;7;;;4.8;;
80910;SDS011;70359;51.420;7.032;2024-01-15T05:16:37;7;;;4.8;;
80910;SDS011;70359;51.420;7.032;2024-01-15T05:19:02;6.7;;;5;;
80910;SDS011;70359;51.420;7.032;2024-01-15T05:21:27;6.7;;;5;;
80910;SDS011;70359;51.420;7.032;2024-01-15T05:23:52;5.9;;;5.3;;
80910;SDS011;70359;51.420;7.032;2024-01-15T05:26:17;5.9;;;5.3;;
80910;SDS011;70359;51.420;7.032;2024-01-15T05:28:44;5.9;;;5.3;;
80910;SDS011;70359;51.420;7.032;2024-01-15T05:31:08;5.4;;;4.9;;
80910;SDS011;70359;51.420;7.032;2024-01-15T05:33:32;5.4;;;4.9;;
80910;SDS011;70359;51.420;7.032;2024-01-15T05:35:57;6;;;5.3;;
80910;SDS011;70359;51.420;7.032;2024-01-15T05:38:22;6;;;5.3;;
80910;SDS011;70359;51.420;7.032;2024-01-15T05:40:47;9.7;;;5.1;;
80910;SDS011;70359;51.420;7.032;2024-01-15T05:43:12;9.7;;;5.1;;
80910;SDS011;70359;51.420;7.032;2024-01-15T05:45:38;5.3;;;4.8;;
80910;SDS011;70359;51.420;7.032;2024-01-15T05:48:03;5.3;;;4.8;;
80910;SDS011;70359;51.420;7.032;2024-01-15T05:50:27;5.3;;;4.8;;
80910;SDS011;70359;51.420;7.032;2024-01-15T05:52:52;5.3;;;4.8;;
80910;SDS011;70359;51.420;7.032;2024-01-15T05:55:18;6.7;;;4.9;;
80910;SDS011;70359;51.420;7.032;2024-01-15T05:57:46;6.7;;;4.9;;
80910;SDS011;70359;51.420;7.032;2024-01-15T06:00:08;6;;;5.4;;
80910;SDS011;70359;51.420;7.032;2024-01-15T06:02:32;6;;;5.4;;
80910;SDS011;70359;51.420;7.032;2024-01-15T06:04:58;5.2;;;4.7;;
80910;SDS011;70359;51.420;7.032;2024-01-15T06:07:22;5.2;;;4.7;;
80910;SDS011;70359;51.420;7.032;2024-01-15T06:09:48;4.9;;;4.5;;
80910;SDS011;70359;51.420;7.032;2024-01-15T06:12:13;4.9;;;4.5;;
80910;SDS011;70359;51.420;7.032;2024-01-15T06:14:37;4.8;;;4.3;;
80910;SDS011;70359;51.420;7.032;2024-01-15T06:17:07;4.8;;;4.3;;
80910;SDS011;70359;51.420;7.032;2024-01-15T06:19:28;5.2;;;4.3;;
80910;SDS011;70359;51.420;7.032;2024-01-15T06:21:53;5.2;;;4.3;;
80910;SDS011;70359;51.420;7.032;2024-01-15T06:24:18;5.8;;;4.7;;
80910;SDS011;70359;51.420;7.032;2024-01-15T06:26:43;5.8;;;4.7;;
80910;SDS011;70359;51.420;7.032;2024-01-15T06:29:11;7.9;;;6;;
80910;SDS011;70359;51.420;7.032;2024-01-15T06:31:33;7.9;;;6;;
80910;SDS011;70359;51.420;7.032;2024-01-15T06:33:58;9.1;;;5.8;;
80910;SDS011;70359;51.420;7.032;2024-01-15T06:36:23;9.1;;;5.8;;
80910;SDS011;70359;51.420;7.032;2024-01-15T06:38:48;5.4;;;4.9;;
80910;SDS011;70359;51.420;7.032;2024-01-15T06:41:13;5.4;;;4.9;;
80910;SDS011;70359;51.420;7.032;2024-01-15T06:43:38;5.4;;;4.9;;
80910;SDS011;70359;51.420;7.032;2024-01-15T06:46:03;6.1;;;4.9;;
80910;SDS011;70359;51.420;7.032;2024-01-15T06:48:28;6.1;;;4.9;;
80910;SDS011;70359;51.420;7.032;2024-01-15T06:50:53;5;;;4.5;;
80910;SDS011;70359;51.420;7.032;2024-01-15T06:53:18;5;;;4.5;;
80910;SDS011;70359;51.420;7.032;2024-01-15T06:55:47;5.3;;;4.3;;
80910;SDS011;70359;51.420;7.032;2024-01-15T06:58:08;5.3;;;4.3;;
80910;SDS011;70359;51.420;7.032;2024-01-15T07:00:33;3.3;;;2.9;;
80910;SDS011;70359;51.420;7.032;2024-01-15T07:02:58;3.3;;;2.9;;
80910;SDS011;70359;51.420;7.032;2024-01-15T07:05:24;4.7;;;2.9;;
80910;SDS011;70359;51.420;7.032;2024-01-15T07:07:52;4.7;;;2.9;;
80910;SDS011;70359;51.420;7.032;2024-01-15T07:10:17;7.9;;;3.1;;
80910;SDS011;70359;51.420;7.032;2024-01-15T07:12:38;7.9;;;3.1;;
80910;SDS011;70359;51.420;7.032;2024-01-15T07:15:03;2.6;;;2.4;;
80910;SDS011;70359;51.420;7.032;2024-01-15T07:17:28;2.6;;;2.4;;
80910;SDS011;70359;51.420;7.032;2024-01-15T07:19:55;2.9;;;2.1;;
80910;SDS011;70359;51.420;7.032;2024-01-15T07:22:18;2.9;;;2.1;;
80910;SDS011;70359;51.420;7.032;2024-01-15T07:24:43;2;;;1.8;;
80910;SDS011;70359;51.420;7.032;2024-01-15T07:27:08;2;;;1.8;;
80910;SDS011;70359;51.420;7.032;2024-01-15T07:29:33;2.7;;;2.2;;
80910;SDS011;70359;51.420;7.032;2024-01-15T07:31:58;2.7;;;2.2;;
80910;SDS011;70359;51.420;7.032;2024-01-15T07:34:23;2;;;1.8;;
80910;SDS011;70359;51.420;7.032;2024-01-15T07:36:48;2;;;1.8;;
80910;SDS011;70359;51.420;7.032;2024-01-15T07:39:13;2.1;;;1.8;;
80910;SDS011;70359;51.420;7.032;2024-01-15T07:41:38;2.1;;;1.8;;
80910;SDS011;70359;51.420;7.032;2024-01-15T07:44:03;3.3;;;2.7;;
80910;SDS011;70359;51.420;7.032;2024-01-15T07:46:28;3.3;;;2.7;;
80910;SDS011;70359;51.420;7.032;2024-01-15T07:48:53;3.7;;;3.1;;
80910;SDS011;70359;51.420;7.032;2024-01-15T07:51:22;3.7;;;3.1;;
80910;SDS011;70359;51.420;7.032;2024-01-15T07:53:43;4.9;;;3.9;;
80910;SDS011;70359;51.420;7.032;2024-01-15T07:56:08;4.9;;;3.9;;
80910;SDS011;70359;51.420;7.032;2024-01-15T07:58:33;4.9;;;3.9;;
80910;SDS011;70359;51.420;7.032;2024-01-15T08:01:02;5.5;;;4.4;;
80910;SDS011;70359;51.420;7.032;2024-01-15T08:03:23;5.5;;;4.4;;
80910;SDS011;70359;51.420;7.032;2024-01-15T08:05:54;4.9;;;3.8;;
80910;SDS011;70359;51.420;7.032;2024-01-15T08:08:13;4.9;;;3.8;;
80910;SDS011;70359;51.420;7.032;2024-01-15T08:10:38;5.6;;;4.2;;
80910;SDS011;70359;51.420;7.032;2024-01-15T08:13:03;5.6;;;4.2;;
80910;SDS011;70359;51.420;7.032;2024-01-15T08:15:28;5.3;;;4.6;;
80910;SDS011;70359;51.420;7.032;2024-01-15T08:17:53;5.3;;;4.6;;
80910;SDS011;70359;51.420;7.032;2024-01-15T08:20:18;3.7;;;3.4;;
80910;SDS011;70359;51.420;7.032;2024-01-15T08:22:43;3.7;;;3.4;;
80910;SDS011;70359;51.420;7.032;2024-01-15T08:25:08;4;;;3.6;;
80910;SDS011;70359;51.420;7.032;2024-01-15T08:27:33;4;;;3.6;;
80910;SDS011;70359;51.420;7.032;2024-01-15T08:29:58;4.8;;;4.2;;
80910;SDS011;70359;51.420;7.032;2024-01-15T08:32:23;4.8;;;4.2;;
80910;SDS011;70359;51.420;7.032;2024-01-15T08:34:52;4.2;;;3.8;;
80910;SDS011;70359;51.420;7.032;2024-01-15T08:37:17;4.2;;;3.8;;
80910;SDS011;70359;51.420;7.032;2024-01-15T08:39:38;5.1;;;4.5;;
80910;SDS011;70359;51.420;7.032;2024-01-15T08:42:03;5.1;;;4.5;;
80910;SDS011;70359;51.420;7.032;2024-01-15T08:44:28;6.2;;;4.7;;
80910;SDS011;70359;51.420;7.032;2024-01-15T08:46:53;6.2;;;4.7;;
80910;SDS011;70359;51.420;7.032;2024-01-15T08:49:22;5;;;4.5;;
80910;SDS011;70359;51.420;7.032;2024-01-15T08:51:43;5;;;4.5;;
80910;SDS011;70359;51.420;7.032;2024-01-15T08:54:08;4.1;;;3.7;;
80910;SDS011;70359;51.420;7.032;2024-01-15T08:56:33;4.1;;;3.7;;
80910;SDS011;70359;51.420;7.032;2024-01-15T08:58:58;5.3;;;4.4;;
80910;SDS011;70359;51.420;7.032;2024-01-15T09:01:23;5.3;;;4.4;;
80910;SDS011;70359;51.420;7.032;2024-01-15T09:03:48;3.2;;;2.9;;
80910;SDS011;70359;51.420;7.032;2024-01-15T09:06:17;3.2;;;2.9;;
80910;SDS011;70359;51.420;7.032;2024-01-15T09:08:38;3.2;;;2.9;;
80910;SDS011;70359;51.420;7.032;2024-01-15T09:11:03;2.6;;;2.4;;
80910;SDS011;70359;51.420;7.032;2024-01-15T09:13:28;2.6;;;2.4;;
80910;SDS011;70359;51.420;7.032;2024-01-15T09:15:53;2.6;;;2.4;;
80910;SDS011;70359;51.420;7.032;2024-01-15T09:18:18;2.6;;;2.4;;
80910;SDS011;70359;51.420;7.032;2024-01-15T09:20:43;2.3;;;2.1;;
80910;SDS011;70359;51.420;7.032;2024-01-15T09:23:08;2.3;;;2.1;;
80910;SDS011;70359;51.420;7.032;2024-01-15T09:25:33;1.8;;;1.7;;
80910;SDS011;70359;51.420;7.032;2024-01-15T09:27:58;1.8;;;1.7;;
80910;SDS011;70359;51.420;7.032;2024-01-15T09:30:23;2.8;;;2;;
80910;SDS011;70359;51.420;7.032;2024-01-15T09:32:48;2.8;;;2;;
80910;SDS011;70359;51.420;7.032;2024-01-15T09:35:13;1.6;;;1.5;;
80910;SDS011;70359;51.420;7.032;2024-01-15T09:37:45;1.6;;;1.5;;
80910;SDS011;70359;51.420;7.032;2024-01-15T09:40:04;2.2;;;2;;
80910;SDS011;70359;51.420;7.032;2024-01-15T09:42:28;2.2;;;2;;
80910;SDS011;70359;51.420;7.032;2024-01-15T09:44:53;2;;;1.7;;
80910;SDS011;70359;51.420;7.032;2024-01-15T09:47:18;2;;;1.7;;
80910;SDS011;70359;51.420;7.032;2024-01-15T09:49:43;1.6;;;1.5;;
80910;SDS011;70359;51.420;7.032;2024-01-15T09:52:10;1.6;;;1.5;;
80910;SDS011;70359;51.420;7.032;2024-01-15T09:54:33;1.4;;;1.3;;
80910;SDS011;70359;51.420;7.032;2024-01-15T09:56:59;1.4;;;1.3;;
80910;SDS011;70359;51.420;7.032;2024-01-15T09:59:24;1.6;;;1.5;;
80910;SDS011;70359;51.420;7.032;2024-01-15T10:01:50;1.6;;;1.5;;
80910;SDS011;70359;51.420;7.032;2024-01-15T10:04:13;1.8;;;1.7;;
80910;SDS011;70359;51.420;7.032;2024-01-15T10:06:38;1.8;;;1.7;;
80910;SDS011;70359;51.420;7.032;2024-01-15T10:09:07;1.4;;;1.3;;
80910;SDS011;70359;51.420;7.032;2024-01-15T10:11:28;1.4;;;1.3;;
80910;SDS011;70359;51.420;7.032;2024-01-15T10:13:53;1.4;;;1.3;;
80910;SDS011;70359;51.420;7.032;2024-01-15T10:16:18;1.4;;;1.3;;
80910;SDS011;70359;51.420;7.032;2024-01-15T10:18:47;1.1;;;1;;
80910;SDS011;70359;51.420;7.032;2024-01-15T10:21:08;1.1;;;1;;
80910;SDS011;70359;51.420;7.032;2024-01-15T10:23:33;1.1;;;1;;
80910;SDS011;70359;51.420;7.032;2024-01-15T10:25:59;2.1;;;1.6;;
80910;SDS011;70359;51.420;7.032;2024-01-15T10:28:26;2.1;;;1.6;;
80910;SDS011;70359;51.420;7.032;2024-01-15T10:30:51;1.2;;;1.1;;
80910;SDS011;70359;51.420;7.032;2024-01-15T10:33:13;1.2;;;1.1;;
80910;SDS011;70359;51.420;7.032;2024-01-15T10:35:38;1.6;;;1.2;;
80910;SDS011;70359;51.420;7.032;2024-01-15T10:38:05;1.6;;;1.2;;
80910;SDS011;70359;51.420;7.032;2024-01-15T10:40:28;1.4;;;1.1;;
80910;SDS011;70359;51.420;7.032;2024-01-15T10:42:53;1.4;;;1.1;;
80910;SDS011;70359;51.420;7.032;2024-01-15T10:45:18;5.3;;;1.7;;
80910;SDS011;70359;51.420;7.032;2024-01-15T10:47:43;5.3;;;1.7;;
80910;SDS011;70359;51.420;7.032;2024-01-15T10:50:09;1.1;;;1;;
80910;SDS011;70359;51.420;7.032;2024-01-15T10:52:38;1.1;;;1;;
80910;SDS011;70359;51.420;7.032;2024-01-15T10:55:03;1.2;;;1.1;;
80910;SDS011;70359;51.420;7.032;2024-01-15T10:57:26;1.2;;;1.1;;
80910;SDS011;70359;51.420;7.032;2024-01-15T10:59:48;1.4;;;1.3;;
80910;SDS011;70359;51.420;7.032;2024-01-15T11:02:14;1.4;;;1.3;;
80910;SDS011;70359;51.420;7.032;2024-01-15T11:04:42;2.8;;;1.4;;
80910;SDS011;70359;51.420;7.032;2024-01-15T11:07:05;2.8;;;1.4;;
80910;SDS011;70359;51.420;7.032;2024-01-15T11:09:28;1.3;;;1.2;;
80910;SDS011;70359;51.420;7.032;2024-01-15T11:12:10;1.3;;;1.2;;
80910;SDS011;70359;51.420;7.032;2024-01-15T11:14:39;1.7;;;1.5;;
80910;SDS011;70359;51.420;7.032;2024-01-15T11:16:58;1.7;;;1.5;;
80910;SDS011;70359;51.420;7.032;2024-01-15T11:19:08;2.1;;;1.5;;
80910;SDS011;70359;51.420;7.032;2024-01-15T11:21:41;2.1;;;1.5;;
80910;SDS011;70359;51.420;7.032;2024-01-15T11:23:59;1.2;;;1.1;;
80910;SDS011;70359;51.420;7.032;2024-01-15T11:26:37;1.2;;;1.1;;
80910;SDS011;70359;51.420;7.032;2024-01-15T11:28:51;1.1;;;1;;
80910;SDS011;70359;51.420;7.032;2024-01-15T11:33:51;1.1;;;1;;
80910;SDS011;70359;51.420;7.032;2024-01-15T11:36:08;1.1;;;1;;
80910;SDS011;70359;51.420;7.032;2024-01-15T11:38:31;1.1;;;1;;
80910;SDS011;70359;51.420;7.032;2024-01-15T11:40:53;2;;;1.6;;
80910;SDS011;70359;51.420;7.032;2024-01-15T11:43:22;2;;;1.6;;
80910;SDS011;70359;51.420;7.032;2024-01-15T11:45:48;1.6;;;1.5;;
80910;SDS011;70359;51.420;7.032;2024-01-15T11:48:21;1.6;;;1.5;;
80910;SDS011;70359;51.420;7.032;2024-01-15T11:50:34;2.1;;;1.8;;
80910;SDS011;70359;51.420;7.032;2024-01-15T11:53:01;2.1;;;1.8;;
80910;SDS011;70359;51.420;7.032;2024-01-15T11:55:27;3.5;;;1.9;;
80910;SDS011;70359;51.420;7.032;2024-01-15T11:57:50;3.5;;;1.9;;
80910;SDS011;70359;51.420;7.032;2024-01-15T12:00:14;2.1;;;1.9;;
80910;SDS011;70359;51.420;7.032;2024-01-15T12:02:39;2.1;;;1.9;;
80910;SDS011;70359;51.420;7.032;2024-01-15T12:05:04;2;;;1.5;;
80910;SDS011;70359;51.420;7.032;2024-01-15T12:07:28;2;;;1.5;;
80910;SDS011;70359;51.420;7.032;2024-01-15T12:09:53;1.9;;;1.8;;
80910;SDS011;70359;51.420;7.032;2024-01-15T12:12:24;1.9;;;1.8;;
80910;SDS011;70359;51.420;7.032;2024-01-15T12:14:47;1.5;;;1.4;;
80910;SDS011;70359;51.420;7.032;2024-01-15T12:17:08;1.5;;;1.4;;
80910;SDS011;70359;51.420;7.032;2024-01-15T12:19:33;4.6;;;1.7;;
80910;SDS011;70359;51.420;7.032;2024-01-15T12:22:02;4.6;;;1.7;;
80910;SDS011;70359;51.420;7.032;2024-01-15T12:24:23;1.6;;;1.3;;
80910;SDS011;70359;51.420;7.032;2024-01-15T12:26:52;1.6;;;1.3;;
80910;SDS011;70359;51.420;7.032;2024-01-15T12:29:14;1.8;;;1.2;;
80910;SDS011;70359;51.420;7.032;2024-01-15T12:31:38;1.8;;;1.2;;
80910;SDS011;70359;51.420;7.032;2024-01-15T12:34:03;0.8;;;0.8;;
80910;SDS011;70359;51.420;7.032;2024-01-15T12:36:30;0.8;;;0.8;;
80910;SDS011;70359;51.420;7.032;2024-01-15T12:38:53;1.5;;;1.2;;
80910;SDS011;70359;51.420;7.032;2024-01-15T12:41:22;1.5;;;1.2;;
80910;SDS011;70359;51.420;7.032;2024-01-15T12:43:43;2.4;;;1.3;;
80910;SDS011;70359;51.420;7.032;2024-01-15T12:46:08;2.4;;;1.3;;
80910;SDS011;70359;51.420;7.032;2024-01-15T12:48:34;1;;;0.9;;
80910;SDS011;70359;51.420;7.032;2024-01-15T12:50:59;1;;;0.9;;
80910;SDS011;70359;51.420;7.032;2024-01-15T12:53:23;1;;;0.9;;
80910;SDS011;70359;51.420;7.032;2024-01-15T12:55:48;1.1;;;0.9;;
80910;SDS011;70359;51.420;7.032;2024-01-15T12:58:13;1.1;;;0.9;;
80910;SDS011;70359;51.420;7.032;2024-01-15T13:00:38;1.2;;;1;;
80910;SDS011;70359;51.420;7.032;2024-01-15T13:03:04;1.2;;;1;;
80910;SDS011;70359;51.420;7.032;2024-01-15T13:05:29;0.8;;;0.8;;
80910;SDS011;70359;51.420;7.032;2024-01-15T13:07:53;0.8;;;0.8;;
80910;SDS011;70359;51.420;7.032;2024-01-15T13:10:22;0.8;;;0.7;;
80910;SDS011;70359;51.420;7.032;2024-01-15T13:12:47;0.8;;;0.7;;
80910;SDS011;70359;51.420;7.032;2024-01-15T13:15:09;2.4;;;1.1;;
80910;SDS011;70359;51.420;7.032;2024-01-15T13:17:37;2.4;;;1.1;;
80910;SDS011;70359;51.420;7.032;2024-01-15T13:19:58;2.7;;;1.4;;
80910;SDS011;70359;51.420;7.032;2024-01-15T13:22:23;2.7;;;1.4;;
80910;SDS011;70359;51.420;7.032;2024-01-15T13:24:48;1.6;;;1.3;;
80910;SDS011;70359;51.420;7.032;2024-01-15T13:27:13;1.6;;;1.3;;
80910;SDS011;70359;51.420;7.032;2024-01-15T13:29:38;1.8;;;1.2;;
80910;SDS011;70359;51.420;7.032;2024-01-15T13:32:04;1.8;;;1.2;;
80910;SDS011;70359;51.420;7.032;2024-01-15T13:34:28;2.2;;;1.6;;
80910;SDS011;70359;51.420;7.032;2024-01-15T13:36:53;2.2;;;1.6;;
80910;SDS011;70359;51.420;7.032;2024-01-15T13:41:47;1.6;;;1.3;;
80910;SDS011;70359;51.420;7.032;2024-01-15T13:44:08;1.5;;;1.4;;
80910;SDS011;70359;51.420;7.032;2024-01-15T13:46:33;1.5;;;1.4;;
80910;SDS011;70359;51.420;7.032;2024-01-15T13:48:58;2.5;;;1.5;;
80910;SDS011;70359;51.420;7.032;2024-01-15T13:51:24;2.5;;;1.5;;
80910;SDS011;70359;51.420;7.032;2024-01-15T13:53:48;1.7;;;1.6;;
80910;SDS011;70359;51.420;7.032;2024-01-15T13:56:18;1.7;;;1.6;;
80910;SDS011;70359;51.420;7.032;2024-01-15T13:58:42;1.7;;;1.3;;
80910;SDS011;70359;51.420;7.032;2024-01-15T14:01:03;1.7;;;1.3;;
80910;SDS011;70359;51.420;7.032;2024-01-15T14:03:28;1.7;;;1.3;;
80910;SDS011;70359;51.420;7.032;2024-01-15T14:05:53;4.6;;;1.4;;
80910;SDS011;70359;51.420;7.032;2024-01-15T14:08:18;4.6;;;1.4;;
80910;SDS011;70359;51.420;7.032;2024-01-15T14:10:47;1.4;;;1.3;;
80910;SDS011;70359;51.420;7.032;2024-01-15T14:13:12;1.4;;;1.3;;
80910;SDS011;70359;51.420;7.032;2024-01-15T14:15:37;1.4;;;1.3;;
80910;SDS011;70359;51.420;7.032;2024-01-15T14:17:59;1.4;;;1.3;;
80910;SDS011;70359;51.420;7.032;2024-01-15T14:20:23;1.2;;;1;;
80910;SDS011;70359;51.420;7.032;2024-01-15T14:22:48;1.2;;;1;;
80910;SDS011;70359;51.420;7.032;2024-01-15T14:25:18;1.2;;;1.1;;
80910;SDS011;70359;51.420;7.032;2024-01-15T14:27:39;1.2;;;1.1;;
80910;SDS011;70359;51.420;7.032;2024-01-15T14:30:04;2.3;;;1.5;;
80910;SDS011;70359;51.420;7.032;2024-01-15T14:32:29;2.3;;;1.5;;
80910;SDS011;70359;51.420;7.032;2024-01-15T14:34:54;1.4;;;1.3;;
80910;SDS011;70359;51.420;7.032;2024-01-15T14:37:18;1.4;;;1.3;;
80910;SDS011;70359;51.420;7.032;2024-01-15T14:39:43;1.2;;;1.1;;
80910;SDS011;70359;51.420;7.032;2024-01-15T14:42:09;1.2;;;1.1;;
80910;SDS011;70359;51.420;7.032;2024-01-15T14:44:34;1.6;;;1.4;;
80910;SDS011;70359;51.420;7.032;2024-01-15T14:46:59;1.6;;;1.4;;
80910;SDS011;70359;51.420;7.032;2024-01-15T14:49:28;5;;;1.5;;
80910;SDS011;70359;51.420;7.032;2024-01-15T14:51:50;5;;;1.5;;
80910;SDS011;70359;51.420;7.032;2024-01-15T14:54:18;2;;;1.5;;
80910;SDS011;70359;51.420;7.032;2024-01-15T14:56:39;2;;;1.5;;
80910;SDS011;70359;51.420;7.032;2024-01-15T14:59:04;1.5;;;1.3;;
80910;SDS011;70359;51.420;7.032;2024-01-15T15:01:29;1.5;;;1.3;;
80910;SDS011;70359;51.420;7.032;2024-01-15T15:03:54;1.2;;;1.1;;
80910;SDS011;70359;51.420;7.032;2024-01-15T15:06:19;1.2;;;1.1;;
80910;SDS011;70359;51.420;7.032;2024-01-15T15:08:45;1.4;;;1.3;;